createdAt,value
2022-12-11T00:04:45.552Z,99813.84
2022-12-11T00:10:09.635Z,99807.78
2022-12-11T00:15:31.665Z,99814.59
2022-12-11T00:20:54.560Z,99808.19
2022-12-11T00:26:17.738Z,99810.75
2022-12-11T00:31:39.385Z,99807.34
2022-12-11T00:37:02.633Z,99807.50
2022-12-11T00:42:24.259Z,99804.94
2022-12-11T00:47:46.207Z,99812.13
2022-12-11T00:53:09.753Z,99809.56
2022-12-11T00:58:31.513Z,99805.41
2022-12-11T01:03:54.754Z,99806.22
2022-12-11T01:09:35.415Z,99813.03
2022-12-11T01:14:57.514Z,99811.31
2022-12-11T01:20:20.372Z,99816.53
2022-12-11T01:25:44.276Z,99825.91
2022-12-11T01:31:10.143Z,99823.09
2022-12-11T01:36:32.168Z,99820.47
2022-12-11T01:41:59.694Z,99822.34
2022-12-11T01:47:23.275Z,99822.94
2022-12-11T01:52:47.545Z,99831.50
2022-12-11T01:58:13.521Z,99832.31
2022-12-11T02:03:35.614Z,99820.53
2022-12-11T02:08:57.870Z,99823.25
2022-12-11T02:14:31.057Z,99819.78
2022-12-11T02:20:03.199Z,99822.19
2022-12-11T02:25:32.206Z,99816.97
2022-12-11T02:31:00.350Z,99822.78
2022-12-11T02:36:26.189Z,99821.09
2022-12-11T02:41:50.535Z,99816.88
2022-12-11T02:47:16.269Z,99812.47
2022-12-11T02:52:39.952Z,99816.47
2022-12-11T02:58:05.541Z,99816.25
2022-12-11T03:03:31.235Z,99814.53
2022-12-11T03:08:53.171Z,99818.75
2022-12-11T03:14:15.066Z,99811.09
2022-12-11T03:19:42.968Z,99810.53
2022-12-11T03:25:09.639Z,99803.78
2022-12-11T03:30:36.062Z,99794.41
2022-12-11T03:36:04.030Z,99789.34
2022-12-11T03:41:28.079Z,99790.19
2022-12-11T03:46:51.722Z,99800.53
2022-12-11T03:52:17.033Z,99805.03
2022-12-11T03:57:39.395Z,99800.78
2022-12-11T04:03:17.995Z,99800.19
2022-12-11T04:08:40.989Z,99807.38
2022-12-11T04:14:19.941Z,99810.84
2022-12-11T04:19:59.116Z,99801.59
2022-12-11T04:25:22.437Z,99804.44
2022-12-11T04:30:50.065Z,99803.78
2022-12-11T04:36:13.118Z,99798.94
2022-12-11T04:41:37.260Z,99795.84
2022-12-11T04:46:59.286Z,99801.84
2022-12-11T04:52:21.336Z,99799.31
2022-12-11T04:57:44.373Z,99800.16
2022-12-11T05:03:06.352Z,99800.16
2022-12-11T05:08:28.423Z,99795.19
2022-12-11T05:13:51.328Z,99788.91
2022-12-11T05:19:13.460Z,99789.50
2022-12-11T05:24:35.122Z,99787.00
2022-12-11T05:29:59.713Z,99782.75
2022-12-11T05:35:22.077Z,99771.56
2022-12-11T05:40:44.636Z,99766.66
2022-12-11T05:46:09.489Z,99767.81
2022-12-11T05:51:31.872Z,99768.28
2022-12-11T05:56:53.817Z,99758.00
2022-12-11T06:02:17.817Z,99759.97
2022-12-11T06:07:39.760Z,99765.03
2022-12-11T06:13:01.989Z,99756.50
2022-12-11T06:18:25.323Z,99763.13
2022-12-11T06:23:48.804Z,99765.03
2022-12-11T06:29:12.938Z,99762.53
2022-12-11T06:34:36.379Z,99755.28
2022-12-11T06:39:58.125Z,99762.34
2022-12-11T06:45:20.194Z,99757.94
2022-12-11T06:50:43.348Z,99760.69
2022-12-11T06:56:06.230Z,99768.38
2022-12-11T07:01:29.643Z,99772.44
2022-12-11T07:06:53.541Z,99777.28
2022-12-11T07:12:15.238Z,99784.16
2022-12-11T07:17:36.918Z,99773.75
2022-12-11T07:23:00.365Z,99780.91
2022-12-11T07:28:22.516Z,99787.41
2022-12-11T07:33:45.101Z,99793.22
2022-12-11T07:39:09.095Z,99794.88
2022-12-11T07:44:31.038Z,99794.88
2022-12-11T07:49:53.242Z,99790.13
2022-12-11T07:55:16.493Z,99784.59
2022-12-11T08:00:38.497Z,99796.06
2022-12-11T08:06:00.253Z,99805.19
2022-12-11T08:11:23.835Z,99799.00
2022-12-11T08:16:45.860Z,99794.44
2022-12-11T08:22:07.543Z,99786.50
2022-12-11T08:27:30.906Z,99787.16
2022-12-11T08:32:52.542Z,99792.06
2022-12-11T08:38:14.498Z,99787.84
2022-12-11T08:43:37.681Z,99793.44
2022-12-11T08:49:00.313Z,99795.91
2022-12-11T08:54:22.319Z,99793.56
2022-12-11T08:59:48.240Z,99796.13
2022-12-11T09:05:10.685Z,99800.81
2022-12-11T09:10:32.448Z,99796.00
2022-12-11T09:15:57.696Z,99793.09
2022-12-11T09:21:22.223Z,99794.63
2022-12-11T09:26:44.033Z,99794.34
2022-12-11T09:32:07.653Z,99790.31
2022-12-11T09:37:29.361Z,99796.97
2022-12-11T09:42:56.325Z,99790.38
2022-12-11T09:48:25.460Z,99782.84
2022-12-11T09:53:47.693Z,99783.97
2022-12-11T09:59:20.497Z,99778.00
2022-12-11T10:04:53.353Z,99775.34
2022-12-11T10:17:00.264Z,99759.41
2022-12-11T10:22:26.101Z,99769.31
2022-12-11T10:27:47.828Z,99766.13
2022-12-11T10:33:19.633Z,99778.53
2022-12-11T10:38:45.357Z,99763.81
2022-12-11T10:44:17.554Z,99770.78
2022-12-11T10:49:41.023Z,99758.59
2022-12-11T10:55:07.783Z,99760.56
2022-12-11T11:00:37.270Z,99751.44
2022-12-11T11:06:17.249Z,99737.91
2022-12-11T11:11:41.174Z,99736.38
2022-12-11T11:17:04.062Z,99727.47
2022-12-11T11:22:26.751Z,99725.97
2022-12-11T11:27:54.308Z,99723.13
2022-12-11T11:33:21.296Z,99729.28
2022-12-11T11:38:50.618Z,99727.13
2022-12-11T11:44:19.482Z,99723.00
2022-12-11T11:49:52.315Z,99715.66
2022-12-11T11:55:22.469Z,99706.56
2022-12-11T12:00:46.454Z,99700.97
2022-12-11T12:06:19.257Z,99698.66
2022-12-11T12:11:48.046Z,99693.38
2022-12-11T12:17:25.322Z,99702.34
2022-12-11T12:23:00.558Z,99695.16
2022-12-11T12:28:31.535Z,99684.69
2022-12-11T12:34:04.249Z,99692.22
2022-12-11T12:39:38.528Z,99688.81
2022-12-11T12:45:03.344Z,99691.13
2022-12-11T12:50:34.601Z,99691.59
2022-12-11T12:55:57.268Z,99677.38
2022-12-11T13:01:21.770Z,99661.81
2022-12-11T13:06:47.242Z,99661.66
2022-12-11T13:12:16.031Z,99656.50
2022-12-11T13:17:39.783Z,99654.84
2022-12-11T13:23:19.466Z,99659.34
2022-12-11T13:28:51.791Z,99657.28
2022-12-11T13:34:19.130Z,99663.31
2022-12-11T13:39:48.516Z,99666.72
2022-12-11T13:45:21.039Z,99668.31
2022-12-11T13:50:45.196Z,99667.47
2022-12-11T13:56:17.212Z,99660.84
2022-12-11T14:01:39.192Z,99665.31
2022-12-11T14:07:02.579Z,99671.56
2022-12-11T14:12:25.802Z,99671.75
2022-12-11T14:17:51.687Z,99680.38
2022-12-11T14:23:20.037Z,99682.03
2022-12-11T14:28:44.457Z,99672.00
2022-12-11T14:34:14.956Z,99676.28
2022-12-11T14:39:40.774Z,99674.06
2022-12-11T14:45:09.150Z,99678.22
2022-12-11T14:50:39.313Z,99681.06
2022-12-11T14:56:06.406Z,99671.75
2022-12-11T15:01:32.880Z,99680.56
2022-12-11T15:06:56.139Z,99687.53
2022-12-11T15:12:19.931Z,99688.28
2022-12-11T15:17:47.165Z,99686.69
2022-12-11T15:23:18.466Z,99690.69
2022-12-11T15:28:40.836Z,99691.78
2022-12-11T15:34:03.910Z,99690.19
2022-12-11T15:39:25.884Z,99696.19
2022-12-11T15:44:48.035Z,99697.97
2022-12-11T15:50:17.943Z,99695.41
2022-12-11T15:55:40.429Z,99702.66
2022-12-11T16:01:02.767Z,99700.97
2022-12-11T16:06:26.271Z,99696.84
2022-12-11T16:11:47.602Z,99710.84
2022-12-11T16:17:11.747Z,99705.78
2022-12-11T16:22:34.825Z,99706.03
2022-12-11T16:27:58.662Z,99712.91
2022-12-11T16:33:20.782Z,99710.50
2022-12-11T16:38:53.135Z,99709.59
2022-12-11T16:44:15.896Z,99707.09
2022-12-11T16:49:38.156Z,99709.66
2022-12-11T16:55:01.570Z,99702.13
2022-12-11T17:00:26.691Z,99697.72
2022-12-11T17:05:48.337Z,99695.16
2022-12-11T17:11:13.001Z,99707.25
2022-12-11T17:16:36.486Z,99693.88
2022-12-11T17:21:59.180Z,99701.59
2022-12-11T17:27:25.520Z,99698.06
2022-12-11T17:32:50.005Z,99699.13
2022-12-11T17:38:11.812Z,99703.25
2022-12-11T17:43:35.145Z,99699.66
2022-12-11T17:49:00.249Z,99695.25
2022-12-11T17:54:22.124Z,99703.94
2022-12-11T17:59:45.741Z,99710.06
2022-12-11T18:05:08.228Z,99716.97
2022-12-11T18:10:30.309Z,99708.28
2022-12-11T18:16:02.512Z,99709.19
2022-12-11T18:21:27.458Z,99709.09
2022-12-11T18:26:49.616Z,99704.91
2022-12-11T18:32:15.229Z,99701.47
2022-12-11T18:37:37.261Z,99714.97
2022-12-11T18:42:59.014Z,99711.81
2022-12-11T18:48:21.736Z,99709.94
2022-12-11T18:53:43.299Z,99708.16
2022-12-11T18:59:05.683Z,99703.03
2022-12-11T19:04:29.046Z,99706.50
2022-12-11T19:09:50.622Z,99710.75
2022-12-11T19:15:13.798Z,99705.44
2022-12-11T19:21:03.196Z,99709.09
2022-12-11T19:26:25.824Z,99710.00
2022-12-11T19:31:47.431Z,99708.34
2022-12-11T19:37:10.987Z,99712.81
2022-12-11T19:42:33.040Z,99711.06
2022-12-11T19:47:55.247Z,99709.59
2022-12-11T19:53:18.816Z,99707.81
2022-12-11T19:58:40.397Z,99701.09
2022-12-11T20:04:04.357Z,99699.59
2022-12-11T20:09:28.623Z,99709.53
2022-12-11T20:14:50.115Z,99705.31
2022-12-11T20:20:12.878Z,99706.38
2022-12-11T20:25:36.063Z,99713.34
2022-12-11T20:31:05.161Z,99708.84
2022-12-11T20:36:28.625Z,99709.47
2022-12-11T20:41:51.997Z,99707.63
2022-12-11T20:47:13.527Z,99692.22
2022-12-11T20:52:36.490Z,99696.50
2022-12-11T20:57:59.647Z,99694.09
2022-12-11T21:03:21.945Z,99701.53
2022-12-11T21:08:43.606Z,99688.72
2022-12-11T21:14:07.597Z,99692.91
2022-12-11T21:19:30.230Z,99697.03
2022-12-11T21:24:52.217Z,99690.91
2022-12-11T21:30:16.288Z,99698.44
2022-12-11T21:35:37.966Z,99695.13
2022-12-11T21:41:07.274Z,99696.88
2022-12-11T21:46:31.156Z,99691.59
2022-12-11T21:51:52.685Z,99692.50
2022-12-11T21:57:14.527Z,99689.16
2022-12-11T22:02:41.042Z,99687.34
2022-12-11T22:08:03.455Z,99696.56
2022-12-11T22:13:25.612Z,99686.91
2022-12-11T22:18:48.984Z,99691.19
2022-12-11T22:24:11.029Z,99684.44
2022-12-11T22:29:33.148Z,99692.91
2022-12-11T22:34:57.814Z,99679.06
2022-12-11T22:40:19.376Z,99680.91
2022-12-11T22:45:42.059Z,99689.25
2022-12-11T22:51:07.623Z,99685.59
2022-12-11T22:56:29.624Z,99693.25
2022-12-11T23:01:51.871Z,99693.25
2022-12-11T23:07:14.924Z,99697.72
2022-12-11T23:12:37.209Z,99693.75
2022-12-11T23:17:58.796Z,99693.25
2022-12-11T23:23:21.814Z,99699.38
2022-12-11T23:28:43.721Z,99695.25
2022-12-11T23:34:05.888Z,99696.91
2022-12-11T23:39:29.263Z,99692.75
2022-12-11T23:44:51.187Z,99696.91
2022-12-11T23:50:12.970Z,99695.06
2022-12-11T23:55:36.453Z,99695.06
